sensor_id;sensor_type;location;lat;lon;timestamp;pressure;altitude;pressure_sealevel;temperature;humidity
71057;BME280;58380;48.312;9.246;2023-04-15T07:16:48;92535.19;;;1.17;94.72
71057;BME280;58380;48.312;9.246;2023-04-15T07:19:20;92548.81;;;1.71;99.03
71057;BME280;58380;48.312;9.246;2023-04-15T07:21:57;92563.09;;;1.97;97.29
71057;BME280;58380;48.312;9.246;2023-04-15T07:24:25;92470.88;;;1.76;97.31
71057;BME280;58380;48.312;9.246;2023-04-15T07:26:56;92579.88;;;2.75;97.23
71057;BME280;58380;48.312;9.246;2023-04-15T07:29:22;92491.09;;;2.31;95.71
71057;BME280;58380;48.312;9.246;2023-04-15T07:31:48;92543.22;;;2.82;92.55
71057;BME280;58380;48.312;9.246;2023-04-15T07:34:13;92604.28;;;3.37;91.31
71057;BME280;58380;48.312;9.246;2023-04-15T07:36:39;92627.59;;;3.77;91.41
71057;BME280;58380;48.312;9.246;2023-04-15T07:39:04;92541.22;;;3.40;89.22
71057;BME280;58380;48.312;9.246;2023-04-15T07:41:33;92622.28;;;4.11;88.92
71057;BME280;58380;48.312;9.246;2023-04-15T07:43:59;92497.50;;;3.47;88.89
71057;BME280;58380;48.312;9.246;2023-04-15T07:46:24;92524.53;;;3.80;87.66
71057;BME280;58380;48.312;9.246;2023-04-15T07:48:52;92588.31;;;4.33;86.84
71057;BME280;58380;48.312;9.246;2023-04-15T07:51:18;92614.88;;;4.74;85.98
71057;BME280;58380;48.312;9.246;2023-04-15T07:53:50;92457.78;;;3.89;85.39
71057;BME280;58380;48.312;9.246;2023-04-15T07:56:19;92533.69;;;4.59;84.91
71057;BME280;58380;48.312;9.246;2023-04-15T07:58:52;92466.03;;;4.30;85.25
71057;BME280;58380;48.312;9.246;2023-04-15T08:01:18;92488.19;;;4.54;84.99
71057;BME280;58380;48.312;9.246;2023-04-15T08:03:44;92605.69;;;5.68;85.13
71057;BME280;58380;48.312;9.246;2023-04-15T08:06:09;92569.81;;;5.69;86.05
71057;BME280;58380;48.312;9.246;2023-04-15T08:08:35;92461.00;;;5.30;83.77
71057;BME280;58380;48.312;9.246;2023-04-15T08:11:03;92497.34;;;5.74;81.45
71057;BME280;58380;48.312;9.246;2023-04-15T08:13:36;92500.34;;;6.03;75.04
71057;BME280;58380;48.312;9.246;2023-04-15T08:16:33;92595.72;;;7.01;78.58
71057;BME280;58380;48.312;9.246;2023-04-15T08:19:33;92598.13;;;7.39;76.57
71057;BME280;58380;48.312;9.246;2023-04-15T08:22:25;92490.78;;;6.86;73.63
71057;BME280;58380;48.312;9.246;2023-04-15T08:25:04;92462.75;;;6.91;67.75
71057;BME280;58380;48.312;9.246;2023-04-15T08:28:03;92538.25;;;7.66;68.62
71057;BME280;58380;48.312;9.246;2023-04-15T08:30:36;92602.22;;;8.21;70.57
71057;BME280;58380;48.312;9.246;2023-04-15T08:33:25;92579.03;;;8.24;65.12
71057;BME280;58380;48.312;9.246;2023-04-15T08:39:50;92539.56;;;8.39;60.35
71057;BME280;58380;48.312;9.246;2023-04-15T08:42:49;92475.59;;;7.99;56.05
71057;BME280;58380;48.312;9.246;2023-04-15T08:45:54;92484.22;;;8.10;56.59
71057;BME280;58380;48.312;9.246;2023-04-15T08:49:11;92505.44;;;8.24;57.05
71057;BME280;58380;48.312;9.246;2023-04-15T08:51:48;92577.16;;;8.50;54.54
71057;BME280;58380;48.312;9.246;2023-04-15T09:03:17;92500.72;;;8.20;56.81
71057;BME280;58380;48.312;9.246;2023-04-15T09:29:01;92540.81;;;8.57;48.02
71057;BME280;58380;48.312;9.246;2023-04-15T09:32:08;92498.66;;;8.17;47.50
71057;BME280;58380;48.312;9.246;2023-04-15T09:34:37;92537.94;;;8.53;47.62
71057;BME280;58380;48.312;9.246;2023-04-15T09:37:15;92635.66;;;9.25;49.88
71057;BME280;58380;48.312;9.246;2023-04-15T09:40:39;92628.53;;;9.31;46.34
71057;BME280;58380;48.312;9.246;2023-04-15T09:44:05;92627.66;;;9.41;47.20
71057;BME280;58380;48.312;9.246;2023-04-15T09:47:38;92550.50;;;9.06;47.02
71057;BME280;58380;48.312;9.246;2023-04-15T09:50:57;92545.03;;;8.97;48.12
71057;BME280;58380;48.312;9.246;2023-04-15T10:00:24;92483.50;;;8.54;45.46
71057;BME280;58380;48.312;9.246;2023-04-15T10:03:09;92639.84;;;9.66;46.77
71057;BME280;58380;48.312;9.246;2023-04-15T10:09:31;92559.22;;;9.36;50.00
71057;BME280;58380;48.312;9.246;2023-04-15T10:19:35;92532.53;;;9.13;46.35
71057;BME280;58380;48.312;9.246;2023-04-15T10:22:16;92529.28;;;8.92;44.98
71057;BME280;58380;48.312;9.246;2023-04-15T10:32:43;92536.75;;;9.14;47.70
71057;BME280;58380;48.312;9.246;2023-04-15T10:35:10;92593.75;;;9.34;45.81
71057;BME280;58380;48.312;9.246;2023-04-15T10:41:38;92543.03;;;8.84;46.43
71057;BME280;58380;48.312;9.246;2023-04-15T10:44:27;92654.31;;;9.74;48.14
71057;BME280;58380;48.312;9.246;2023-04-15T10:47:21;92557.00;;;9.19;39.24
71057;BME280;58380;48.312;9.246;2023-04-15T10:53:09;92551.38;;;8.96;43.68
71057;BME280;58380;48.312;9.246;2023-04-15T10:56:01;92669.88;;;9.70;41.15
71057;BME280;58380;48.312;9.246;2023-04-15T10:58:51;92623.47;;;9.40;41.25
71057;BME280;58380;48.312;9.246;2023-04-15T11:01:22;92660.59;;;9.78;40.99
71057;BME280;58380;48.312;9.246;2023-04-15T11:04:59;92641.53;;;9.86;39.90
71057;BME280;58380;48.312;9.246;2023-04-15T11:14:14;92553.66;;;9.42;37.75
71057;BME280;58380;48.312;9.246;2023-04-15T11:20:05;92673.34;;;10.29;38.17
71057;BME280;58380;48.312;9.246;2023-04-15T11:22:51;92523.25;;;9.21;40.94
71057;BME280;58380;48.312;9.246;2023-04-15T11:25:28;92615.22;;;10.10;42.98
71057;BME280;58380;48.312;9.246;2023-04-15T11:28:54;92679.78;;;10.71;44.52
71057;BME280;58380;48.312;9.246;2023-04-15T11:41:48;92597.16;;;9.69;47.92
71057;BME280;58380;48.312;9.246;2023-04-15T11:47:28;92701.50;;;10.39;46.41
71057;BME280;58380;48.312;9.246;2023-04-15T11:50:31;92590.72;;;9.51;47.81
71057;BME280;58380;48.312;9.246;2023-04-15T11:53:24;92620.19;;;9.53;47.48
71057;BME280;58380;48.312;9.246;2023-04-15T11:57:00;92704.78;;;9.91;47.60
71057;BME280;58380;48.312;9.246;2023-04-15T12:00:02;92598.13;;;9.10;47.77
71057;BME280;58380;48.312;9.246;2023-04-15T12:06:19;92715.72;;;10.08;45.45
71057;BME280;58380;48.312;9.246;2023-04-15T12:12:08;92695.34;;;10.14;45.49
71057;BME280;58380;48.312;9.246;2023-04-15T12:21:40;92663.91;;;9.93;43.64
71057;BME280;58380;48.312;9.246;2023-04-15T12:32:07;92726.81;;;11.36;42.52
71057;BME280;58380;48.312;9.246;2023-04-15T12:35:07;92722.66;;;11.49;41.74
71057;BME280;58380;48.312;9.246;2023-04-15T12:38:00;92729.84;;;11.24;45.40
71057;BME280;58380;48.312;9.246;2023-04-15T12:50:42;92752.44;;;10.34;45.67
71057;BME280;58380;48.312;9.246;2023-04-15T13:09:08;92684.66;;;9.66;46.29
71057;BME280;58380;48.312;9.246;2023-04-15T13:23:54;92766.69;;;10.33;46.85
71057;BME280;58380;48.312;9.246;2023-04-15T13:26:31;92719.03;;;9.85;47.12
71057;BME280;58380;48.312;9.246;2023-04-15T13:29:38;92770.56;;;10.41;46.96
71057;BME280;58380;48.312;9.246;2023-04-15T13:36:05;92711.59;;;9.92;46.42
71057;BME280;58380;48.312;9.246;2023-04-15T13:42:50;92723.28;;;9.81;45.88
71057;BME280;58380;48.312;9.246;2023-04-15T14:00:00;92805.81;;;10.55;44.73
71057;BME280;58380;48.312;9.246;2023-04-15T14:02:49;92818.72;;;10.56;48.65
71057;BME280;58380;48.312;9.246;2023-04-15T14:05:14;92795.53;;;10.19;53.56
71057;BME280;58380;48.312;9.246;2023-04-15T14:07:39;92793.03;;;9.99;55.50
71057;BME280;58380;48.312;9.246;2023-04-15T14:10:05;92820.38;;;10.08;57.88
71057;BME280;58380;48.312;9.246;2023-04-15T14:12:31;92837.38;;;9.91;59.19
71057;BME280;58380;48.312;9.246;2023-04-15T14:14:57;92858.34;;;9.57;56.31
71057;BME280;58380;48.312;9.246;2023-04-15T14:17:22;92853.69;;;9.34;58.02
71057;BME280;58380;48.312;9.246;2023-04-15T14:19:48;92850.59;;;9.01;60.39
71057;BME280;58380;48.312;9.246;2023-04-15T14:22:13;92890.38;;;8.99;61.10
71057;BME280;58380;48.312;9.246;2023-04-15T14:24:39;92880.88;;;8.98;61.84
71057;BME280;58380;48.312;9.246;2023-04-15T14:27:05;92850.34;;;8.97;61.19
71057;BME280;58380;48.312;9.246;2023-04-15T14:29:30;92876.84;;;9.42;61.51
71057;BME280;58380;48.312;9.246;2023-04-15T14:31:56;92874.50;;;9.95;59.26
71057;BME280;58380;48.312;9.246;2023-04-15T14:34:23;92843.19;;;9.83;55.93
71057;BME280;58380;48.312;9.246;2023-04-15T14:36:50;92871.66;;;9.86;55.73
71057;BME280;58380;48.312;9.246;2023-04-15T14:39:17;92890.63;;;9.83;55.56
71057;BME280;58380;48.312;9.246;2023-04-15T14:41:44;92908.41;;;9.52;56.61
71057;BME280;58380;48.312;9.246;2023-04-15T14:44:09;92913.22;;;9.24;57.03
71057;BME280;58380;48.312;9.246;2023-04-15T14:46:36;92902.47;;;8.90;58.61
71057;BME280;58380;48.312;9.246;2023-04-15T14:49:02;92914.06;;;8.58;61.07
71057;BME280;58380;48.312;9.246;2023-04-15T14:51:28;92937.22;;;8.56;62.26
71057;BME280;58380;48.312;9.246;2023-04-15T14:53:53;92939.22;;;8.24;64.20
71057;BME280;58380;48.312;9.246;2023-04-15T14:56:19;92937.06;;;8.00;65.38
71057;BME280;58380;48.312;9.246;2023-04-15T14:58:44;92914.69;;;7.82;64.79
71057;BME280;58380;48.312;9.246;2023-04-15T15:01:10;92923.38;;;7.93;65.91
71057;BME280;58380;48.312;9.246;2023-04-15T15:03:35;92933.13;;;7.97;67.02
71057;BME280;58380;48.312;9.246;2023-04-15T15:06:01;92908.13;;;7.85;67.13
71057;BME280;58380;48.312;9.246;2023-04-15T15:08:26;92913.41;;;7.95;67.31
71057;BME280;58380;48.312;9.246;2023-04-15T15:10:52;92916.25;;;7.88;65.76
71057;BME280;58380;48.312;9.246;2023-04-15T15:13:18;92919.16;;;7.82;66.67
71057;BME280;58380;48.312;9.246;2023-04-15T15:15:43;92919.16;;;7.82;67.51
71057;BME280;58380;48.312;9.246;2023-04-15T15:18:09;92939.13;;;7.93;64.04
71057;BME280;58380;48.312;9.246;2023-04-15T15:20:35;92909.63;;;7.70;65.73
71057;BME280;58380;48.312;9.246;2023-04-15T15:23:01;92942.53;;;7.83;64.45
71057;BME280;58380;48.312;9.246;2023-04-15T15:25:27;92946.19;;;7.77;65.06
71057;BME280;58380;48.312;9.246;2023-04-15T15:27:52;92907.50;;;7.57;65.19
71057;BME280;58380;48.312;9.246;2023-04-15T15:30:18;92949.88;;;7.81;64.69
71057;BME280;58380;48.312;9.246;2023-04-15T15:32:44;92906.16;;;7.54;60.88
71057;BME280;58380;48.312;9.246;2023-04-15T15:35:10;92924.59;;;7.65;57.03
71057;BME280;58380;48.312;9.246;2023-04-15T15:37:36;92925.88;;;7.57;53.99
71057;BME280;58380;48.312;9.246;2023-04-15T15:40:06;92908.00;;;7.49;53.92
71057;BME280;58380;48.312;9.246;2023-04-15T15:42:32;92936.97;;;7.74;52.56
71057;BME280;58380;48.312;9.246;2023-04-15T15:44:58;92949.06;;;7.81;51.08
71057;BME280;58380;48.312;9.246;2023-04-15T15:47:24;92927.75;;;7.62;50.34
71057;BME280;58380;48.312;9.246;2023-04-15T15:49:51;92905.84;;;7.41;50.21
71057;BME280;58380;48.312;9.246;2023-04-15T15:52:17;92943.78;;;7.70;50.51
71057;BME280;58380;48.312;9.246;2023-04-15T15:54:43;92970.66;;;7.88;50.79
71057;BME280;58380;48.312;9.246;2023-04-15T15:57:09;92967.44;;;7.75;51.15
71057;BME280;58380;48.312;9.246;2023-04-15T15:59:35;92974.31;;;7.76;50.71
71057;BME280;58380;48.312;9.246;2023-04-15T16:02:07;92980.28;;;7.67;50.01
71057;BME280;58380;48.312;9.246;2023-04-15T16:04:35;92967.41;;;7.65;49.84
71057;BME280;58380;48.312;9.246;2023-04-15T16:07:01;92988.72;;;7.69;50.36
71057;BME280;58380;48.312;9.246;2023-04-15T16:09:27;92953.84;;;7.36;51.32
71057;BME280;58380;48.312;9.246;2023-04-15T16:11:52;92978.63;;;7.50;53.34
71057;BME280;58380;48.312;9.246;2023-04-15T16:14:18;92981.53;;;7.49;54.39
71057;BME280;58380;48.312;9.246;2023-04-15T16:16:45;92968.75;;;7.25;55.32
71057;BME280;58380;48.312;9.246;2023-04-15T16:19:10;93007.78;;;7.49;56.68
71057;BME280;58380;48.312;9.246;2023-04-15T16:21:36;93009.88;;;7.52;57.85
71057;BME280;58380;48.312;9.246;2023-04-15T16:24:01;92971.72;;;7.34;58.55
71057;BME280;58380;48.312;9.246;2023-04-15T16:26:27;92983.81;;;7.40;57.63
71057;BME280;58380;48.312;9.246;2023-04-15T16:28:53;93016.50;;;7.60;57.83
71057;BME280;58380;48.312;9.246;2023-04-15T16:31:19;92988.53;;;7.38;57.83
71057;BME280;58380;48.312;9.246;2023-04-15T16:33:45;93017.72;;;7.42;58.04
71057;BME280;58380;48.312;9.246;2023-04-15T16:36:11;92989.94;;;7.13;58.92
71057;BME280;58380;48.312;9.246;2023-04-15T16:38:36;92991.56;;;7.20;59.19
71057;BME280;58380;48.312;9.246;2023-04-15T16:41:02;93024.25;;;7.39;58.92
71057;BME280;58380;48.312;9.246;2023-04-15T16:43:27;93027.59;;;7.29;58.94
71057;BME280;58380;48.312;9.246;2023-04-15T16:45:53;93035.44;;;7.24;58.86
71057;BME280;58380;48.312;9.246;2023-04-15T16:48:19;93022.72;;;7.11;59.18
71057;BME280;58380;48.312;9.246;2023-04-15T16:50:45;93020.56;;;7.03;60.18
71057;BME280;58380;48.312;9.246;2023-04-15T16:53:15;93006.63;;;6.97;60.89
71057;BME280;58380;48.312;9.246;2023-04-15T16:55:41;93041.63;;;7.13;61.22
71057;BME280;58380;48.312;9.246;2023-04-15T16:58:06;93041.63;;;7.13;61.12
71057;BME280;58380;48.312;9.246;2023-04-15T17:00:32;93052.63;;;7.10;62.28
71057;BME280;58380;48.312;9.246;2023-04-15T17:03:00;93037.97;;;6.82;63.29
71057;BME280;58380;48.312;9.246;2023-04-15T17:05:25;93057.16;;;6.87;63.37
71057;BME280;58380;48.312;9.246;2023-04-15T17:07:57;93052.06;;;6.76;65.48
71057;BME280;58380;48.312;9.246;2023-04-15T17:10:23;93050.34;;;6.59;66.47
71057;BME280;58380;48.312;9.246;2023-04-15T17:12:48;93077.97;;;6.67;67.06
71057;BME280;58380;48.312;9.246;2023-04-15T17:15:16;93072.97;;;6.43;67.63
71057;BME280;58380;48.312;9.246;2023-04-15T17:17:42;93032.03;;;6.15;68.83
71057;BME280;58380;48.312;9.246;2023-04-15T17:20:08;93066.84;;;6.33;69.06
71057;BME280;58380;48.312;9.246;2023-04-15T17:22:34;93087.63;;;6.39;69.98
71057;BME280;58380;48.312;9.246;2023-04-15T17:25:00;93063.25;;;6.17;70.49
71057;BME280;58380;48.312;9.246;2023-04-15T17:27:25;93102.47;;;6.34;71.60
71057;BME280;58380;48.312;9.246;2023-04-15T17:29:52;93101.03;;;6.21;71.46
71057;BME280;58380;48.312;9.246;2023-04-15T17:32:18;93062.25;;;5.84;72.88
71057;BME280;58380;48.312;9.246;2023-04-15T17:34:44;93097.03;;;5.96;74.69
71057;BME280;58380;48.312;9.246;2023-04-15T17:37:10;93051.56;;;5.47;75.14
71057;BME280;58380;48.312;9.246;2023-04-15T17:39:35;93106.28;;;5.65;76.27
71057;BME280;58380;48.312;9.246;2023-04-15T17:42:00;93137.53;;;5.72;77.55
71057;BME280;58380;48.312;9.246;2023-04-15T17:44:26;93102.72;;;5.54;78.16
71057;BME280;58380;48.312;9.246;2023-04-15T17:46:51;93121.28;;;5.53;79.37
71057;BME280;58380;48.312;9.246;2023-04-15T17:49:16;93127.78;;;5.50;80.14
71057;BME280;58380;48.312;9.246;2023-04-15T17:51:42;93070.50;;;5.03;79.56
71057;BME280;58380;48.312;9.246;2023-04-15T17:54:09;93068.75;;;5.09;81.04
71057;BME280;58380;48.312;9.246;2023-04-15T17:56:35;93140.72;;;5.57;79.44
71057;BME280;58380;48.312;9.246;2023-04-15T17:59:01;93133.72;;;5.46;80.80
71057;BME280;58380;48.312;9.246;2023-04-15T18:01:26;93132.16;;;5.45;81.35
71057;BME280;58380;48.312;9.246;2023-04-15T18:03:52;93116.53;;;5.33;81.60
71057;BME280;58380;48.312;9.246;2023-04-15T18:06:17;93160.59;;;5.41;82.62
71057;BME280;58380;48.312;9.246;2023-04-15T18:08:45;93151.09;;;5.35;84.26
71057;BME280;58380;48.312;9.246;2023-04-15T18:11:11;93168.38;;;5.36;85.83
71057;BME280;58380;48.312;9.246;2023-04-15T18:13:36;93187.50;;;5.36;85.60
71057;BME280;58380;48.312;9.246;2023-04-15T18:16:02;93126.94;;;4.99;86.40
71057;BME280;58380;48.312;9.246;2023-04-15T18:18:27;93176.03;;;5.09;86.96
71057;BME280;58380;48.312;9.246;2023-04-15T18:20:53;93116.97;;;4.67;88.40
71057;BME280;58380;48.312;9.246;2023-04-15T18:23:37;93044.44;;;4.17;90.22
71057;BME280;58380;48.312;9.246;2023-04-15T18:38:06;93147.16;;;4.46;95.04
71057;BME280;58380;48.312;9.246;2023-04-15T18:40:31;93211.38;;;4.83;95.80
71057;BME280;58380;48.312;9.246;2023-04-15T18:42:57;93174.88;;;4.47;96.31
71057;BME280;58380;48.312;9.246;2023-04-15T18:45:22;93218.34;;;4.77;97.97
71057;BME280;58380;48.312;9.246;2023-04-15T18:47:49;93170.81;;;4.40;97.37
71057;BME280;58380;48.312;9.246;2023-04-15T18:50:15;93216.63;;;4.71;99.07
71057;BME280;58380;48.312;9.246;2023-04-15T18:52:40;93217.47;;;4.60;100.00
71057;BME280;58380;48.312;9.246;2023-04-15T18:55:06;93235.31;;;4.63;100.00
71057;BME280;58380;48.312;9.246;2023-04-15T18:57:32;93227.69;;;4.61;100.00
71057;BME280;58380;48.312;9.246;2023-04-15T18:59:58;93210.91;;;4.45;100.00
71057;BME280;58380;48.312;9.246;2023-04-15T19:02:25;93221.56;;;4.56;100.00
71057;BME280;58380;48.312;9.246;2023-04-15T19:04:50;93214.19;;;4.52;100.00
71057;BME280;58380;48.312;9.246;2023-04-15T19:07:16;93215.00;;;4.41;100.00
71057;BME280;58380;48.312;9.246;2023-04-15T19:09:41;93250.41;;;4.72;100.00
71057;BME280;58380;48.312;9.246;2023-04-15T19:12:07;93238.69;;;4.75;100.00
71057;BME280;58380;48.312;9.246;2023-04-15T19:14:32;93250.25;;;4.79;100.00
71057;BME280;58380;48.312;9.246;2023-04-15T19:16:58;93224.41;;;4.54;100.00
71057;BME280;58380;48.312;9.246;2023-04-15T19:19:23;93265.53;;;4.70;100.00
71057;BME280;58380;48.312;9.246;2023-04-15T19:21:49;93265.53;;;4.59;100.00
71057;BME280;58380;48.312;9.246;2023-04-15T19:24:16;93263.50;;;4.61;100.00
71057;BME280;58380;48.312;9.246;2023-04-15T19:26:43;93274.97;;;4.60;100.00
71057;BME280;58380;48.312;9.246;2023-04-15T19:29:11;93241.59;;;4.26;100.00
71057;BME280;58380;48.312;9.246;2023-04-15T19:31:36;93267.81;;;4.31;100.00
71057;BME280;58380;48.312;9.246;2023-04-15T19:34:02;93292.59;;;4.29;100.00
71057;BME280;58380;48.312;9.246;2023-04-15T19:36:27;93258.28;;;4.14;100.00
71057;BME280;58380;48.312;9.246;2023-04-15T19:38:53;93266.47;;;4.17;100.00
71057;BME280;58380;48.312;9.246;2023-04-15T19:41:19;93278.50;;;4.18;100.00
71057;BME280;58380;48.312;9.246;2023-04-15T19:43:44;93264.06;;;4.04;100.00
71057;BME280;58380;48.312;9.246;2023-04-15T19:46:10;93268.03;;;4.06;100.00
71057;BME280;58380;48.312;9.246;2023-04-15T19:48:37;93281.25;;;4.23;100.00
71057;BME280;58380;48.312;9.246;2023-04-15T19:51:03;93293.16;;;4.19;100.00
71057;BME280;58380;48.312;9.246;2023-04-15T19:53:29;93271.81;;;4.10;100.00
71057;BME280;58380;48.312;9.246;2023-04-15T19:55:54;93292.03;;;4.15;100.00
71057;BME280;58380;48.312;9.246;2023-04-15T19:58:20;93291.22;;;4.26;100.00
71057;BME280;58380;48.312;9.246;2023-04-15T20:00:45;93260.44;;;4.17;100.00
71057;BME280;58380;48.312;9.246;2023-04-15T20:03:10;93247.41;;;4.05;100.00
71057;BME280;58380;48.312;9.246;2023-04-15T20:05:36;93289.66;;;4.37;100.00
71057;BME280;58380;48.312;9.246;2023-04-15T20:08:02;93259.19;;;3.96;100.00
71057;BME280;58380;48.312;9.246;2023-04-15T20:10:27;93295.22;;;4.17;100.00
71057;BME280;58380;48.312;9.246;2023-04-15T20:12:55;93279.97;;;4.14;100.00
71057;BME280;58380;48.312;9.246;2023-04-15T20:15:20;93290.22;;;4.16;100.00
71057;BME280;58380;48.312;9.246;2023-04-15T20:17:47;93257.72;;;4.00;100.00
71057;BME280;58380;48.312;9.246;2023-04-15T20:20:13;93283.03;;;4.11;100.00
71057;BME280;58380;48.312;9.246;2023-04-15T20:22:38;93280.53;;;4.16;100.00
71057;BME280;58380;48.312;9.246;2023-04-15T20:25:05;93259.66;;;3.93;100.00
71057;BME280;58380;48.312;9.246;2023-04-15T20:27:31;93262.59;;;3.96;100.00
71057;BME280;58380;48.312;9.246;2023-04-15T20:29:56;93260.44;;;3.93;100.00
